PGT270A LTFJ-LTFH
Flight info
| Callsign | PGT270A |
|---|---|
| Flight time | 1h 1m |
| Altitude | 35000 |
| Route | VICEN1J/06L VICEN UT380 ASMAP UL333 LATGA UT363 ESB UT364 ILHAN UW71 HAVZA HAVZA1M |
| Aircraft | A21N/M-SDE2E3FGHIRWXY/LB1 |
Departure
| Time | 2026-05-05 16:26 |
|---|---|
| Airport | Istanbul Sabiha Gökçen International Airport (LTFJ) |
Arrival
| Time | 2026-05-05 17:28 |
|---|---|
| Airport | Samsun-Çarşamba Airport (LTFH) |
| Time | Latitude | Longitude | Altitude | Speed | Heading |
|---|---|---|---|---|---|
| 2026-05-05 15:41 | 40.90633 | 29.31651 | 316 ft | 0 kts | 334° |
| 2026-05-05 16:13 | 40.90615 | 29.31664 | 316 ft | 4 kts | 328° |
| 2026-05-05 16:14 | 40.90574 | 29.31709 | 316 ft | 5 kts | 303° |
| 2026-05-05 16:14 | 40.90566 | 29.31754 | 316 ft | 3 kts | 244° |
| 2026-05-05 16:18 | 40.90566 | 29.31753 | 316 ft | 1 kts | 244° |
| 2026-05-05 16:19 | 40.90559 | 29.31734 | 316 ft | 4 kts | 244° |
| 2026-05-05 16:19 | 40.90542 | 29.31689 | 316 ft | 7 kts | 244° |
| 2026-05-05 16:19 | 40.90483 | 29.31527 | 316 ft | 12 kts | 244° |
| 2026-05-05 16:20 | 40.90387 | 29.31452 | 315 ft | 9 kts | 153° |
| 2026-05-05 16:20 | 40.90260 | 29.31449 | 316 ft | 11 kts | 244° |
| 2026-05-05 16:21 | 40.90178 | 29.31228 | 316 ft | 15 kts | 244° |
| 2026-05-05 16:22 | 40.90016 | 29.30787 | 316 ft | 20 kts | 244° |
| 2026-05-05 16:22 | 40.89903 | 29.30480 | 316 ft | 20 kts | 244° |
| 2026-05-05 16:23 | 40.89775 | 29.30131 | 314 ft | 22 kts | 244° |
| 2026-05-05 16:23 | 40.89711 | 29.29957 | 311 ft | 22 kts | 244° |
| 2026-05-05 16:23 | 40.89581 | 29.29606 | 311 ft | 21 kts | 244° |
| 2026-05-05 16:24 | 40.89516 | 29.29430 | 308 ft | 18 kts | 244° |
| 2026-05-05 16:24 | 40.89465 | 29.29293 | 309 ft | 12 kts | 237° |
| 2026-05-05 16:24 | 40.89337 | 29.29291 | 309 ft | 11 kts | 152° |
| 2026-05-05 16:25 | 40.89282 | 29.29354 | 310 ft | 11 kts | 90° |
| 2026-05-05 16:25 | 40.89361 | 29.29581 | 311 ft | 42 kts | 64° |
| 2026-05-05 16:25 | 40.89595 | 29.30215 | 314 ft | 108 kts | 64° |
| 2026-05-05 16:26 | 40.90520 | 29.32679 | 741 ft | 162 kts | 63° |
| 2026-05-05 16:26 | 40.91471 | 29.35399 | 1831 ft | 172 kts | 66° |
| 2026-05-05 16:27 | 40.91972 | 29.36909 | 2349 ft | 186 kts | 66° |
| 2026-05-05 16:27 | 40.92511 | 29.38515 | 3008 ft | 195 kts | 65° |
| 2026-05-05 16:27 | 40.92872 | 29.40313 | 3608 ft | 212 kts | 86° |
| 2026-05-05 16:27 | 40.92462 | 29.42228 | 4209 ft | 227 kts | 118° |
| 2026-05-05 16:28 | 40.91428 | 29.43972 | 4599 ft | 257 kts | 139° |
| 2026-05-05 16:28 | 40.89851 | 29.45245 | 5208 ft | 270 kts | 154° |
| 2026-05-05 16:28 | 40.88142 | 29.46305 | 6125 ft | 275 kts | 155° |
| 2026-05-05 16:28 | 40.86374 | 29.47360 | 6940 ft | 282 kts | 155° |
| 2026-05-05 16:29 | 40.84592 | 29.48466 | 7836 ft | 285 kts | 154° |
| 2026-05-05 16:29 | 40.82788 | 29.49605 | 8715 ft | 289 kts | 154° |
| 2026-05-05 16:29 | 40.80953 | 29.50760 | 9444 ft | 295 kts | 154° |
| 2026-05-05 16:29 | 40.79099 | 29.51963 | 9840 ft | 297 kts | 150° |
| 2026-05-05 16:30 | 40.77432 | 29.53614 | 10200 ft | 309 kts | 131° |
| 2026-05-05 16:30 | 40.76252 | 29.56074 | 10539 ft | 330 kts | 110° |
| 2026-05-05 16:30 | 40.75590 | 29.59067 | 10914 ft | 349 kts | 101° |
| 2026-05-05 16:30 | 40.75175 | 29.62265 | 11642 ft | 356 kts | 96° |
| 2026-05-05 16:31 | 40.74842 | 29.65517 | 12479 ft | 360 kts | 96° |
| 2026-05-05 16:31 | 40.74510 | 29.68795 | 13292 ft | 363 kts | 96° |
| 2026-05-05 16:31 | 40.74165 | 29.72105 | 14068 ft | 367 kts | 96° |
| 2026-05-05 16:31 | 40.73808 | 29.75453 | 14824 ft | 370 kts | 96° |
| 2026-05-05 16:32 | 40.73446 | 29.78830 | 15546 ft | 374 kts | 96° |
| 2026-05-05 16:32 | 40.73080 | 29.82244 | 16258 ft | 378 kts | 96° |
| 2026-05-05 16:32 | 40.72709 | 29.85692 | 16946 ft | 381 kts | 96° |
| 2026-05-05 16:32 | 40.72332 | 29.89169 | 17607 ft | 385 kts | 96° |
| 2026-05-05 16:33 | 40.71951 | 29.92674 | 18240 ft | 388 kts | 97° |
| 2026-05-05 16:33 | 40.71566 | 29.96213 | 18850 ft | 392 kts | 96° |
| 2026-05-05 16:33 | 40.71174 | 29.99782 | 19430 ft | 395 kts | 96° |
| 2026-05-05 16:33 | 40.70779 | 30.03384 | 19989 ft | 399 kts | 96° |
| 2026-05-05 16:34 | 40.70378 | 30.07019 | 20524 ft | 403 kts | 96° |
| 2026-05-05 16:34 | 40.69966 | 30.10689 | 21055 ft | 407 kts | 96° |
| 2026-05-05 16:34 | 40.69550 | 30.14395 | 21581 ft | 411 kts | 96° |
| 2026-05-05 16:34 | 40.69132 | 30.18141 | 22104 ft | 415 kts | 96° |
| 2026-05-05 16:35 | 40.68718 | 30.21870 | 22621 ft | 419 kts | 95° |
| 2026-05-05 16:35 | 40.68291 | 30.25685 | 23128 ft | 423 kts | 96° |
| 2026-05-05 16:35 | 40.67860 | 30.29532 | 23625 ft | 426 kts | 95° |
| 2026-05-05 16:35 | 40.67424 | 30.33407 | 24106 ft | 430 kts | 95° |
| 2026-05-05 16:36 | 40.66983 | 30.37319 | 24565 ft | 434 kts | 95° |
| 2026-05-05 16:36 | 40.66539 | 30.41262 | 25054 ft | 436 kts | 95° |
| 2026-05-05 16:36 | 40.66090 | 30.45225 | 25522 ft | 439 kts | 95° |
| 2026-05-05 16:36 | 40.65637 | 30.49225 | 25972 ft | 442 kts | 95° |
| 2026-05-05 16:37 | 40.65185 | 30.53242 | 26409 ft | 445 kts | 95° |
| 2026-05-05 16:37 | 40.64727 | 30.57285 | 26829 ft | 448 kts | 95° |
| 2026-05-05 16:37 | 40.64263 | 30.61351 | 27235 ft | 451 kts | 95° |
| 2026-05-05 16:37 | 40.63790 | 30.65441 | 27628 ft | 453 kts | 95° |
| 2026-05-05 16:38 | 40.63311 | 30.69548 | 28010 ft | 456 kts | 96° |
| 2026-05-05 16:38 | 40.62614 | 30.73639 | 28366 ft | 461 kts | 102° |
| 2026-05-05 16:38 | 40.61756 | 30.77719 | 28725 ft | 463 kts | 102° |
| 2026-05-05 16:38 | 40.60884 | 30.81817 | 29078 ft | 466 kts | 102° |
| 2026-05-05 16:39 | 40.60010 | 30.85920 | 29457 ft | 466 kts | 102° |
| 2026-05-05 16:39 | 40.59138 | 30.90021 | 29932 ft | 465 kts | 102° |
| 2026-05-05 16:39 | 40.58268 | 30.94113 | 30329 ft | 465 kts | 102° |
| 2026-05-05 16:39 | 40.57399 | 30.98207 | 30740 ft | 464 kts | 102° |
| 2026-05-05 16:40 | 40.56527 | 31.02289 | 31137 ft | 464 kts | 102° |
| 2026-05-05 16:40 | 40.55657 | 31.06368 | 31540 ft | 463 kts | 102° |
| 2026-05-05 16:40 | 40.54787 | 31.10446 | 31911 ft | 463 kts | 102° |
| 2026-05-05 16:40 | 40.53914 | 31.14530 | 32251 ft | 463 kts | 102° |
| 2026-05-05 16:41 | 40.53039 | 31.18599 | 32580 ft | 463 kts | 102° |
| 2026-05-05 16:41 | 40.52162 | 31.22675 | 32882 ft | 464 kts | 102° |
| 2026-05-05 16:41 | 40.51284 | 31.26755 | 33185 ft | 465 kts | 102° |
| 2026-05-05 16:41 | 40.50398 | 31.30843 | 33494 ft | 465 kts | 102° |
| 2026-05-05 16:42 | 40.49512 | 31.34925 | 33787 ft | 465 kts | 102° |
| 2026-05-05 16:42 | 40.48625 | 31.39010 | 34055 ft | 466 kts | 102° |
| 2026-05-05 16:42 | 40.47733 | 31.43106 | 34292 ft | 466 kts | 102° |
| 2026-05-05 16:42 | 40.46839 | 31.47198 | 34548 ft | 466 kts | 102° |
| 2026-05-05 16:43 | 40.45959 | 31.51234 | 34815 ft | 466 kts | 102° |
| 2026-05-05 16:43 | 40.45067 | 31.55322 | 35037 ft | 467 kts | 102° |
| 2026-05-05 16:43 | 40.43275 | 31.63513 | 35072 ft | 467 kts | 102° |
| 2026-05-05 16:44 | 40.41478 | 31.71704 | 35046 ft | 467 kts | 102° |
| 2026-05-05 16:44 | 40.39673 | 31.79894 | 35044 ft | 468 kts | 102° |
| 2026-05-05 16:45 | 40.37859 | 31.88093 | 35028 ft | 468 kts | 102° |
| 2026-05-05 16:45 | 40.36038 | 31.96284 | 35025 ft | 469 kts | 103° |
| 2026-05-05 16:46 | 40.34507 | 32.03096 | 35018 ft | 469 kts | 103° |
| 2026-05-05 16:46 | 40.32713 | 32.11309 | 35015 ft | 468 kts | 101° |
| 2026-05-05 16:47 | 40.31087 | 32.19554 | 35015 ft | 467 kts | 101° |
| 2026-05-05 16:47 | 40.29463 | 32.27802 | 35011 ft | 468 kts | 101° |
| 2026-05-05 16:48 | 40.27827 | 32.36040 | 35003 ft | 468 kts | 101° |
| 2026-05-05 16:48 | 40.26169 | 32.44276 | 34999 ft | 468 kts | 101° |
| 2026-05-05 16:49 | 40.24520 | 32.52499 | 35003 ft | 466 kts | 101° |
| 2026-05-05 16:49 | 40.22874 | 32.60713 | 34991 ft | 466 kts | 101° |
| 2026-05-05 16:50 | 40.21222 | 32.68896 | 34996 ft | 465 kts | 101° |
| 2026-05-05 16:50 | 40.19567 | 32.77067 | 35002 ft | 464 kts | 102° |
| 2026-05-05 16:51 | 40.17910 | 32.85219 | 34986 ft | 464 kts | 102° |
| 2026-05-05 16:51 | 40.16262 | 32.93309 | 34993 ft | 463 kts | 101° |
| 2026-05-05 16:52 | 40.15773 | 33.01556 | 34987 ft | 453 kts | 78° |
| 2026-05-05 16:52 | 40.16553 | 33.05505 | 34986 ft | 447 kts | 65° |
| 2026-05-05 16:52 | 40.17923 | 33.09125 | 35004 ft | 443 kts | 57° |
| 2026-05-05 16:53 | 40.21031 | 33.16083 | 34985 ft | 444 kts | 57° |
| 2026-05-05 16:53 | 40.24098 | 33.23108 | 34987 ft | 445 kts | 58° |
| 2026-05-05 16:54 | 40.27139 | 33.30163 | 34993 ft | 446 kts | 58° |
| 2026-05-05 16:54 | 40.30185 | 33.37240 | 34987 ft | 446 kts | 58° |
| 2026-05-05 16:55 | 40.33232 | 33.44332 | 34987 ft | 447 kts | 58° |
| 2026-05-05 16:55 | 40.36276 | 33.51440 | 34992 ft | 448 kts | 58° |
| 2026-05-05 16:56 | 40.39323 | 33.58569 | 34985 ft | 448 kts | 58° |
| 2026-05-05 16:56 | 40.42362 | 33.65704 | 34985 ft | 448 kts | 58° |
| 2026-05-05 16:57 | 40.45053 | 33.73059 | 34985 ft | 448 kts | 69° |
| 2026-05-05 16:57 | 40.46974 | 33.80779 | 34982 ft | 442 kts | 70° |
| 2026-05-05 16:58 | 40.48893 | 33.88568 | 34986 ft | 452 kts | 70° |
| 2026-05-05 16:58 | 40.50940 | 33.96357 | 34982 ft | 451 kts | 66° |
| 2026-05-05 16:59 | 40.53303 | 34.03993 | 34979 ft | 451 kts | 66° |
| 2026-05-05 16:59 | 40.55663 | 34.11644 | 34981 ft | 452 kts | 66° |
| 2026-05-05 17:00 | 40.58019 | 34.19301 | 34978 ft | 451 kts | 66° |
| 2026-05-05 17:00 | 40.60360 | 34.26925 | 34968 ft | 447 kts | 66° |
| 2026-05-05 17:01 | 40.62677 | 34.34452 | 34968 ft | 444 kts | 66° |
| 2026-05-05 17:01 | 40.65009 | 34.42068 | 34976 ft | 450 kts | 67° |
| 2026-05-05 17:02 | 40.67335 | 34.49724 | 34970 ft | 450 kts | 67° |
| 2026-05-05 17:02 | 40.69657 | 34.57382 | 34971 ft | 450 kts | 67° |
| 2026-05-05 17:03 | 40.71966 | 34.65039 | 34970 ft | 450 kts | 67° |
| 2026-05-05 17:03 | 40.74274 | 34.72686 | 34968 ft | 447 kts | 67° |
| 2026-05-05 17:04 | 40.76515 | 34.80260 | 34920 ft | 438 kts | 68° |
| 2026-05-05 17:04 | 40.77618 | 34.84028 | 34578 ft | 445 kts | 68° |
| 2026-05-05 17:04 | 40.78721 | 34.87786 | 34093 ft | 444 kts | 68° |
| 2026-05-05 17:05 | 40.79836 | 34.91577 | 33492 ft | 444 kts | 68° |
| 2026-05-05 17:05 | 40.80947 | 34.95377 | 32867 ft | 443 kts | 68° |
| 2026-05-05 17:05 | 40.82052 | 34.99176 | 32228 ft | 444 kts | 68° |
| 2026-05-05 17:05 | 40.83158 | 35.02982 | 31587 ft | 443 kts | 68° |
| 2026-05-05 17:06 | 40.84267 | 35.06779 | 30985 ft | 442 kts | 68° |
| 2026-05-05 17:06 | 40.85373 | 35.10555 | 30407 ft | 440 kts | 68° |
| 2026-05-05 17:06 | 40.86465 | 35.14308 | 29847 ft | 437 kts | 68° |
| 2026-05-05 17:06 | 40.87552 | 35.18044 | 29263 ft | 435 kts | 68° |
| 2026-05-05 17:07 | 40.88632 | 35.21770 | 28675 ft | 432 kts | 69° |
| 2026-05-05 17:07 | 40.89704 | 35.25468 | 28114 ft | 430 kts | 69° |
| 2026-05-05 17:07 | 40.90769 | 35.29143 | 27554 ft | 427 kts | 69° |
| 2026-05-05 17:07 | 40.91828 | 35.32804 | 26974 ft | 425 kts | 69° |
| 2026-05-05 17:08 | 40.92877 | 35.36439 | 26389 ft | 422 kts | 69° |
| 2026-05-05 17:08 | 40.93915 | 35.40057 | 25827 ft | 420 kts | 69° |
| 2026-05-05 17:08 | 40.94946 | 35.43655 | 25293 ft | 415 kts | 70° |
| 2026-05-05 17:08 | 40.95959 | 35.47178 | 25007 ft | 403 kts | 70° |
| 2026-05-05 17:09 | 40.96948 | 35.50617 | 24964 ft | 400 kts | 70° |
| 2026-05-05 17:09 | 40.97930 | 35.54044 | 24899 ft | 393 kts | 70° |
| 2026-05-05 17:09 | 40.98902 | 35.57431 | 24106 ft | 396 kts | 70° |
| 2026-05-05 17:09 | 40.99888 | 35.60866 | 23091 ft | 403 kts | 70° |
| 2026-05-05 17:10 | 41.00887 | 35.64355 | 22254 ft | 406 kts | 70° |
| 2026-05-05 17:10 | 41.01885 | 35.67842 | 21618 ft | 403 kts | 70° |
| 2026-05-05 17:10 | 41.02874 | 35.71282 | 21028 ft | 398 kts | 70° |
| 2026-05-05 17:10 | 41.03875 | 35.74671 | 20426 ft | 393 kts | 69° |
| 2026-05-05 17:11 | 41.04868 | 35.78025 | 19865 ft | 388 kts | 70° |
| 2026-05-05 17:11 | 41.05842 | 35.81326 | 19328 ft | 382 kts | 70° |
| 2026-05-05 17:11 | 41.06801 | 35.84587 | 18853 ft | 376 kts | 69° |
| 2026-05-05 17:11 | 41.07740 | 35.87784 | 18395 ft | 369 kts | 69° |
| 2026-05-05 17:12 | 41.08661 | 35.90932 | 17955 ft | 363 kts | 70° |
| 2026-05-05 17:12 | 41.09543 | 35.94023 | 17524 ft | 356 kts | 71° |
| 2026-05-05 17:12 | 41.10371 | 35.97046 | 17108 ft | 350 kts | 71° |
| 2026-05-05 17:12 | 41.11199 | 36.00086 | 16685 ft | 350 kts | 71° |
| 2026-05-05 17:13 | 41.12026 | 36.03127 | 16264 ft | 350 kts | 71° |
| 2026-05-05 17:13 | 41.12852 | 36.06167 | 15846 ft | 351 kts | 71° |
| 2026-05-05 17:13 | 41.13680 | 36.09207 | 15435 ft | 350 kts | 71° |
| 2026-05-05 17:13 | 41.14510 | 36.12235 | 15045 ft | 349 kts | 71° |
| 2026-05-05 17:14 | 41.15333 | 36.15260 | 14647 ft | 348 kts | 71° |
| 2026-05-05 17:14 | 41.16152 | 36.18285 | 14229 ft | 348 kts | 71° |
| 2026-05-05 17:14 | 41.16965 | 36.21304 | 13809 ft | 347 kts | 71° |
| 2026-05-05 17:14 | 41.17779 | 36.24317 | 13398 ft | 346 kts | 71° |
| 2026-05-05 17:15 | 41.18591 | 36.27325 | 13009 ft | 345 kts | 70° |
| 2026-05-05 17:15 | 41.19397 | 36.30316 | 12628 ft | 343 kts | 70° |
| 2026-05-05 17:15 | 41.20197 | 36.33297 | 12239 ft | 342 kts | 70° |
| 2026-05-05 17:15 | 41.20994 | 36.36268 | 11833 ft | 341 kts | 70° |
| 2026-05-05 17:16 | 41.21792 | 36.39235 | 11429 ft | 341 kts | 70° |
| 2026-05-05 17:16 | 41.22587 | 36.42200 | 11043 ft | 340 kts | 70° |
| 2026-05-05 17:16 | 41.23372 | 36.45131 | 10733 ft | 331 kts | 70° |
| 2026-05-05 17:16 | 41.24127 | 36.47959 | 10534 ft | 319 kts | 70° |
| 2026-05-05 17:17 | 41.24856 | 36.50683 | 10378 ft | 307 kts | 70° |
| 2026-05-05 17:17 | 41.25554 | 36.53298 | 10231 ft | 294 kts | 70° |
| 2026-05-05 17:17 | 41.26224 | 36.55817 | 10011 ft | 286 kts | 70° |
| 2026-05-05 17:17 | 41.26883 | 36.58298 | 9652 ft | 283 kts | 70° |
| 2026-05-05 17:18 | 41.27536 | 36.60755 | 9289 ft | 281 kts | 70° |
| 2026-05-05 17:18 | 41.28181 | 36.63196 | 8945 ft | 279 kts | 70° |
| 2026-05-05 17:18 | 41.28828 | 36.65631 | 8615 ft | 279 kts | 70° |
| 2026-05-05 17:18 | 41.29449 | 36.68072 | 8293 ft | 278 kts | 75° |
| 2026-05-05 17:19 | 41.29602 | 36.70622 | 7978 ft | 279 kts | 98° |
| 2026-05-05 17:19 | 41.28922 | 36.73019 | 7657 ft | 279 kts | 121° |
| 2026-05-05 17:19 | 41.27784 | 36.75108 | 7343 ft | 279 kts | 126° |
| 2026-05-05 17:19 | 41.26618 | 36.77119 | 7143 ft | 270 kts | 126° |
| 2026-05-05 17:20 | 41.25503 | 36.79068 | 7015 ft | 259 kts | 126° |
| 2026-05-05 17:20 | 41.24445 | 36.80944 | 6889 ft | 249 kts | 126° |
| 2026-05-05 17:20 | 41.23430 | 36.82754 | 6694 ft | 241 kts | 126° |
| 2026-05-05 17:20 | 41.22436 | 36.84532 | 6343 ft | 239 kts | 127° |
| 2026-05-05 17:21 | 41.21266 | 36.86161 | 5852 ft | 246 kts | 140° |
| 2026-05-05 17:21 | 41.19828 | 36.87428 | 5382 ft | 251 kts | 154° |
| 2026-05-05 17:21 | 41.18157 | 36.88011 | 5133 ft | 245 kts | 178° |
| 2026-05-05 17:22 | 41.15245 | 36.86239 | 4779 ft | 236 kts | 219° |
| 2026-05-05 17:22 | 41.13969 | 36.84890 | 4390 ft | 234 kts | 232° |
| 2026-05-05 17:22 | 41.13150 | 36.83048 | 4068 ft | 230 kts | 245° |
| 2026-05-05 17:22 | 41.12440 | 36.81168 | 3836 ft | 224 kts | 244° |
| 2026-05-05 17:23 | 41.11894 | 36.79305 | 3668 ft | 211 kts | 261° |
| 2026-05-05 17:23 | 41.11936 | 36.77424 | 3403 ft | 202 kts | 289° |
| 2026-05-05 17:23 | 41.12621 | 36.75830 | 3072 ft | 199 kts | 308° |
| 2026-05-05 17:23 | 41.13480 | 36.74407 | 2742 ft | 197 kts | 309° |
| 2026-05-05 17:24 | 41.14305 | 36.73010 | 2550 ft | 187 kts | 308° |
| 2026-05-05 17:24 | 41.15066 | 36.71670 | 2405 ft | 180 kts | 307° |
| 2026-05-05 17:24 | 41.15810 | 36.70331 | 2337 ft | 181 kts | 306° |
| 2026-05-05 17:24 | 41.16553 | 36.69011 | 2259 ft | 178 kts | 310° |
| 2026-05-05 17:25 | 41.17397 | 36.67884 | 2081 ft | 168 kts | 315° |
| 2026-05-05 17:25 | 41.17945 | 36.67158 | 1939 ft | 161 kts | 314° |
| 2026-05-05 17:25 | 41.18911 | 36.65822 | 1642 ft | 138 kts | 313° |
| 2026-05-05 17:25 | 41.19558 | 36.64909 | 1451 ft | 135 kts | 313° |
| 2026-05-05 17:26 | 41.20196 | 36.63991 | 1318 ft | 135 kts | 313° |
| 2026-05-05 17:26 | 41.20845 | 36.63098 | 1123 ft | 134 kts | 314° |
| 2026-05-05 17:26 | 41.21483 | 36.62197 | 905 ft | 134 kts | 313° |
| 2026-05-05 17:26 | 41.22128 | 36.61308 | 727 ft | 134 kts | 313° |
| 2026-05-05 17:27 | 41.22772 | 36.60420 | 583 ft | 134 kts | 314° |
| 2026-05-05 17:27 | 41.23418 | 36.59528 | 407 ft | 133 kts | 314° |
| 2026-05-05 17:27 | 41.24058 | 36.58637 | 228 ft | 133 kts | 314° |
| 2026-05-05 17:27 | 41.24700 | 36.57755 | 60 ft | 133 kts | 314° |
| 2026-05-05 17:28 | 41.25299 | 36.56923 | 33 ft | 114 kts | 313° |
| 2026-05-05 17:28 | 41.25765 | 36.56269 | 30 ft | 75 kts | 314° |
| 2026-05-05 17:28 | 41.26012 | 36.55926 | 29 ft | 27 kts | 314° |
| 2026-05-05 17:28 | 41.26047 | 36.55835 | 29 ft | 9 kts | 201° |
| 2026-05-05 17:29 | 41.25980 | 36.55797 | 30 ft | 12 kts | 221° |
| 2026-05-05 17:29 | 41.25936 | 36.55739 | 30 ft | 10 kts | 226° |
| 2026-05-05 17:29 | 41.25897 | 36.55689 | 30 ft | 7 kts | 223° |
| 2026-05-05 17:29 | 41.25877 | 36.55639 | 30 ft | 7 kts | 288° |
| 2026-05-05 17:30 | 41.25898 | 36.55602 | 30 ft | 4 kts | 314° |
| 2026-05-05 17:30 | 41.25901 | 36.55557 | 30 ft | 6 kts | 232° |
| 2026-05-05 17:30 | 41.25880 | 36.55530 | 30 ft | 3 kts | 222° |
| 2026-05-05 17:30 | 41.25867 | 36.55515 | 30 ft | 0 kts | 221° |